sensor_id;sensor_type;location;lat;lon;timestamp;pressure;altitude;pressure_sealevel;temperature;humidity
79645;BME280;69117;47.148;18.954;2023-07-13T00:02:14;100351.28;;;23.03;100.00
79645;BME280;69117;47.148;18.954;2023-07-13T00:05:16;100348.69;;;22.90;100.00
79645;BME280;69117;47.148;18.954;2023-07-13T00:08:17;100348.50;;;22.91;100.00
79645;BME280;69117;47.148;18.954;2023-07-13T00:11:19;100341.31;;;22.85;100.00
79645;BME280;69117;47.148;18.954;2023-07-13T00:14:22;100333.69;;;22.82;100.00
79645;BME280;69117;47.148;18.954;2023-07-13T00:17:25;100328.34;;;22.75;100.00
79645;BME280;69117;47.148;18.954;2023-07-13T00:20:27;100334.34;;;22.77;100.00
79645;BME280;69117;47.148;18.954;2023-07-13T00:23:28;100328.28;;;22.63;100.00
79645;BME280;69117;47.148;18.954;2023-07-13T00:26:30;100312.63;;;22.54;100.00
79645;BME280;69117;47.148;18.954;2023-07-13T00:29:33;100308.03;;;22.61;100.00
79645;BME280;69117;47.148;18.954;2023-07-13T00:32:36;100287.81;;;22.52;100.00
79645;BME280;69117;47.148;18.954;2023-07-13T00:35:39;100273.84;;;22.43;100.00
79645;BME280;69117;47.148;18.954;2023-07-13T00:38:41;100279.28;;;22.36;100.00
79645;BME280;69117;47.148;18.954;2023-07-13T00:41:43;100283.38;;;22.39;100.00
79645;BME280;69117;47.148;18.954;2023-07-13T00:48:11;100273.72;;;22.13;100.00
79645;BME280;69117;47.148;18.954;2023-07-13T00:51:19;100260.22;;;21.94;100.00
79645;BME280;69117;47.148;18.954;2023-07-13T00:54:33;100249.97;;;21.85;100.00
79645;BME280;69117;47.148;18.954;2023-07-13T00:57:37;100252.25;;;21.81;100.00
79645;BME280;69117;47.148;18.954;2023-07-13T01:00:41;100256.25;;;21.79;100.00
79645;BME280;69117;47.148;18.954;2023-07-13T01:03:43;100245.50;;;21.72;100.00
79645;BME280;69117;47.148;18.954;2023-07-13T01:06:45;100232.63;;;21.56;100.00
79645;BME280;69117;47.148;18.954;2023-07-13T01:09:48;100240.69;;;21.56;100.00
79645;BME280;69117;47.148;18.954;2023-07-13T01:12:50;100228.78;;;21.45;100.00
79645;BME280;69117;47.148;18.954;2023-07-13T01:15:52;100226.78;;;21.34;100.00
79645;BME280;69117;47.148;18.954;2023-07-13T01:18:55;100221.22;;;21.28;100.00
79645;BME280;69117;47.148;18.954;2023-07-13T01:21:59;100219.19;;;21.24;100.00
79645;BME280;69117;47.148;18.954;2023-07-13T01:25:02;100207.84;;;21.22;100.00
79645;BME280;69117;47.148;18.954;2023-07-13T01:28:06;100213.81;;;21.24;100.00
79645;BME280;69117;47.148;18.954;2023-07-13T01:31:08;100200.66;;;21.16;100.00
79645;BME280;69117;47.148;18.954;2023-07-13T01:34:10;100201.69;;;21.15;100.00
79645;BME280;69117;47.148;18.954;2023-07-13T01:37:12;100198.56;;;21.18;100.00
79645;BME280;69117;47.148;18.954;2023-07-13T01:40:14;100200.03;;;21.14;100.00
79645;BME280;69117;47.148;18.954;2023-07-13T01:43:16;100195.78;;;21.06;100.00
79645;BME280;69117;47.148;18.954;2023-07-13T01:46:17;100185.22;;;21.04;100.00
79645;BME280;69117;47.148;18.954;2023-07-13T01:49:24;100191.66;;;21.03;100.00
79645;BME280;69117;47.148;18.954;2023-07-13T01:52:26;100205.91;;;21.04;100.00
79645;BME280;69117;47.148;18.954;2023-07-13T01:55:28;100204.47;;;21.01;100.00
79645;BME280;69117;47.148;18.954;2023-07-13T01:58:30;100188.81;;;20.92;100.00
79645;BME280;69117;47.148;18.954;2023-07-13T02:01:31;100177.69;;;20.88;100.00
79645;BME280;69117;47.148;18.954;2023-07-13T02:04:33;100177.94;;;20.80;100.00
79645;BME280;69117;47.148;18.954;2023-07-13T02:07:35;100185.38;;;20.78;100.00
79645;BME280;69117;47.148;18.954;2023-07-13T02:10:37;100182.88;;;20.83;100.00
79645;BME280;69117;47.148;18.954;2023-07-13T02:13:39;100178.94;;;20.86;100.00
79645;BME280;69117;47.148;18.954;2023-07-13T02:16:41;100174.22;;;20.81;100.00
79645;BME280;69117;47.148;18.954;2023-07-13T02:19:43;100179.38;;;20.83;100.00
79645;BME280;69117;47.148;18.954;2023-07-13T02:22:44;100184.81;;;20.76;100.00
79645;BME280;69117;47.148;18.954;2023-07-13T02:25:46;100167.25;;;20.73;100.00
79645;BME280;69117;47.148;18.954;2023-07-13T02:28:48;100183.56;;;20.72;100.00
79645;BME280;69117;47.148;18.954;2023-07-13T02:31:49;100186.19;;;20.78;100.00
79645;BME280;69117;47.148;18.954;2023-07-13T02:34:52;100188.06;;;20.78;100.00
79645;BME280;69117;47.148;18.954;2023-07-13T02:37:54;100181.69;;;20.79;100.00
79645;BME280;69117;47.148;18.954;2023-07-13T02:40:55;100172.97;;;20.84;100.00
79645;BME280;69117;47.148;18.954;2023-07-13T02:43:58;100177.50;;;20.83;100.00
79645;BME280;69117;47.148;18.954;2023-07-13T02:47:05;100187.69;;;20.74;100.00
79645;BME280;69117;47.148;18.954;2023-07-13T02:50:08;100175.94;;;20.69;100.00
79645;BME280;69117;47.148;18.954;2023-07-13T02:53:10;100181.75;;;20.66;100.00
79645;BME280;69117;47.148;18.954;2023-07-13T02:56:12;100178.66;;;20.62;100.00
79645;BME280;69117;47.148;18.954;2023-07-13T02:59:17;100173.09;;;20.64;100.00
79645;BME280;69117;47.148;18.954;2023-07-13T03:02:19;100183.22;;;20.62;100.00
79645;BME280;69117;47.148;18.954;2023-07-13T03:05:20;100178.06;;;20.60;100.00
79645;BME280;69117;47.148;18.954;2023-07-13T03:08:22;100173.69;;;20.66;100.00
79645;BME280;69117;47.148;18.954;2023-07-13T03:11:24;100183.94;;;20.75;100.00
79645;BME280;69117;47.148;18.954;2023-07-13T03:14:25;100193.00;;;20.81;100.00
79645;BME280;69117;47.148;18.954;2023-07-13T03:17:27;100197.75;;;20.86;100.00
79645;BME280;69117;47.148;18.954;2023-07-13T03:20:32;100189.44;;;20.94;100.00
79645;BME280;69117;47.148;18.954;2023-07-13T03:23:34;100193.94;;;21.00;100.00
79645;BME280;69117;47.148;18.954;2023-07-13T03:26:36;100191.41;;;21.05;100.00
79645;BME280;69117;47.148;18.954;2023-07-13T03:29:38;100190.91;;;21.21;100.00
79645;BME280;69117;47.148;18.954;2023-07-13T03:32:39;100174.72;;;21.28;100.00
79645;BME280;69117;47.148;18.954;2023-07-13T03:35:41;100177.13;;;21.43;100.00
79645;BME280;69117;47.148;18.954;2023-07-13T03:38:43;100177.66;;;21.52;100.00
79645;BME280;69117;47.148;18.954;2023-07-13T03:41:44;100185.38;;;21.66;100.00
79645;BME280;69117;47.148;18.954;2023-07-13T03:44:46;100193.75;;;21.77;100.00
79645;BME280;69117;47.148;18.954;2023-07-13T03:47:53;100183.31;;;21.87;100.00
79645;BME280;69117;47.148;18.954;2023-07-13T03:50:55;100189.06;;;21.90;100.00
79645;BME280;69117;47.148;18.954;2023-07-13T03:53:57;100206.88;;;21.91;100.00
79645;BME280;69117;47.148;18.954;2023-07-13T03:56:58;100221.50;;;21.95;100.00
79645;BME280;69117;47.148;18.954;2023-07-13T04:00:00;100248.94;;;22.04;100.00
79645;BME280;69117;47.148;18.954;2023-07-13T04:03:02;100260.53;;;22.05;100.00
79645;BME280;69117;47.148;18.954;2023-07-13T04:06:06;100257.84;;;22.05;100.00
79645;BME280;69117;47.148;18.954;2023-07-13T04:09:08;100261.41;;;21.99;100.00
79645;BME280;69117;47.148;18.954;2023-07-13T04:12:10;100276.38;;;21.94;100.00
79645;BME280;69117;47.148;18.954;2023-07-13T04:15:11;100277.38;;;21.93;100.00
79645;BME280;69117;47.148;18.954;2023-07-13T04:18:13;100287.19;;;21.88;100.00
79645;BME280;69117;47.148;18.954;2023-07-13T04:21:16;100317.53;;;21.70;100.00
79645;BME280;69117;47.148;18.954;2023-07-13T04:24:18;100337.25;;;21.57;100.00
79645;BME280;69117;47.148;18.954;2023-07-13T04:27:20;100352.84;;;21.48;100.00
79645;BME280;69117;47.148;18.954;2023-07-13T04:30:25;100367.78;;;21.38;100.00
79645;BME280;69117;47.148;18.954;2023-07-13T04:33:27;100370.91;;;21.28;100.00
79645;BME280;69117;47.148;18.954;2023-07-13T04:36:28;100373.78;;;21.33;100.00
79645;BME280;69117;47.148;18.954;2023-07-13T04:39:30;100347.94;;;21.32;100.00
79645;BME280;69117;47.148;18.954;2023-07-13T04:42:31;100346.09;;;21.26;100.00
79645;BME280;69117;47.148;18.954;2023-07-13T04:45:35;100347.22;;;21.05;100.00
79645;BME280;69117;47.148;18.954;2023-07-13T04:48:37;100383.25;;;20.84;100.00
79645;BME280;69117;47.148;18.954;2023-07-13T04:51:39;100420.47;;;20.74;100.00
79645;BME280;69117;47.148;18.954;2023-07-13T04:54:41;100443.22;;;20.58;100.00
79645;BME280;69117;47.148;18.954;2023-07-13T04:57:43;100508.25;;;20.53;100.00
79645;BME280;69117;47.148;18.954;2023-07-13T05:00:45;100486.53;;;20.22;100.00
79645;BME280;69117;47.148;18.954;2023-07-13T05:03:46;100469.91;;;19.72;100.00
79645;BME280;69117;47.148;18.954;2023-07-13T05:21:39;100552.88;;;18.89;100.00
79645;BME280;69117;47.148;18.954;2023-07-13T05:24:40;100550.34;;;18.81;100.00
79645;BME280;69117;47.148;18.954;2023-07-13T05:27:42;100505.97;;;18.71;100.00
79645;BME280;69117;47.148;18.954;2023-07-13T05:30:48;100450.16;;;18.68;100.00
79645;BME280;69117;47.148;18.954;2023-07-13T05:33:50;100439.72;;;18.73;100.00
79645;BME280;69117;47.148;18.954;2023-07-13T05:36:52;100457.88;;;18.78;100.00
79645;BME280;69117;47.148;18.954;2023-07-13T05:39:54;100367.59;;;18.72;100.00
79645;BME280;69117;47.148;18.954;2023-07-13T05:58:01;100319.06;;;18.75;100.00
79645;BME280;69117;47.148;18.954;2023-07-13T06:01:06;100214.50;;;18.76;100.00
79645;BME280;69117;47.148;18.954;2023-07-13T06:04:08;100026.66;;;18.53;100.00
79645;BME280;69117;47.148;18.954;2023-07-13T06:07:09;100055.47;;;18.58;100.00
79645;BME280;69117;47.148;18.954;2023-07-13T06:10:11;100094.59;;;18.59;100.00
79645;BME280;69117;47.148;18.954;2023-07-13T06:13:13;100144.84;;;18.70;100.00
79645;BME280;69117;47.148;18.954;2023-07-13T06:16:15;100143.44;;;18.81;100.00
79645;BME280;69117;47.148;18.954;2023-07-13T06:19:17;100142.81;;;18.79;100.00
79645;BME280;69117;47.148;18.954;2023-07-13T06:22:19;100110.72;;;18.79;100.00
79645;BME280;69117;47.148;18.954;2023-07-13T06:25:21;100143.28;;;18.82;100.00
79645;BME280;69117;47.148;18.954;2023-07-13T06:28:22;100170.88;;;18.96;100.00
79645;BME280;69117;47.148;18.954;2023-07-13T06:31:24;100197.25;;;19.06;100.00
79645;BME280;69117;47.148;18.954;2023-07-13T06:34:25;100220.97;;;19.22;100.00
79645;BME280;69117;47.148;18.954;2023-07-13T06:37:27;100223.66;;;19.35;100.00
79645;BME280;69117;47.148;18.954;2023-07-13T06:40:29;100256.66;;;19.49;100.00
79645;BME280;69117;47.148;18.954;2023-07-13T06:43:31;100295.81;;;19.57;100.00
79645;BME280;69117;47.148;18.954;2023-07-13T06:46:33;100305.34;;;19.79;100.00
79645;BME280;69117;47.148;18.954;2023-07-13T06:49:35;100291.69;;;20.34;100.00
79645;BME280;69117;47.148;18.954;2023-07-13T06:52:37;100256.78;;;20.41;100.00
79645;BME280;69117;47.148;18.954;2023-07-13T06:55:39;100266.25;;;20.50;100.00
79645;BME280;69117;47.148;18.954;2023-07-13T06:58:41;100297.16;;;20.72;100.00
79645;BME280;69117;47.148;18.954;2023-07-13T07:01:42;100281.97;;;20.98;100.00
79645;BME280;69117;47.148;18.954;2023-07-13T07:04:44;100357.59;;;21.01;100.00
79645;BME280;69117;47.148;18.954;2023-07-13T07:07:46;100349.19;;;21.30;100.00
79645;BME280;69117;47.148;18.954;2023-07-13T07:10:47;100303.09;;;21.64;100.00
79645;BME280;69117;47.148;18.954;2023-07-13T07:13:53;100349.53;;;21.46;100.00
79645;BME280;69117;47.148;18.954;2023-07-13T07:16:55;100374.28;;;21.87;100.00
79645;BME280;69117;47.148;18.954;2023-07-13T07:19:56;100347.03;;;22.33;100.00
79645;BME280;69117;47.148;18.954;2023-07-13T07:22:58;100367.28;;;22.79;100.00
79645;BME280;69117;47.148;18.954;2023-07-13T07:26:00;100430.63;;;22.13;100.00
79645;BME280;69117;47.148;18.954;2023-07-13T07:29:01;100440.72;;;22.25;100.00
79645;BME280;69117;47.148;18.954;2023-07-13T07:32:06;100433.31;;;22.13;100.00
79645;BME280;69117;47.148;18.954;2023-07-13T07:35:18;100439.53;;;22.39;100.00
79645;BME280;69117;47.148;18.954;2023-07-13T07:38:20;100435.78;;;22.65;100.00
79645;BME280;69117;47.148;18.954;2023-07-13T07:41:25;100442.78;;;22.48;100.00
79645;BME280;69117;47.148;18.954;2023-07-13T07:44:31;100442.34;;;22.76;100.00
79645;BME280;69117;47.148;18.954;2023-07-13T07:47:32;100444.00;;;22.52;100.00
79645;BME280;69117;47.148;18.954;2023-07-13T07:50:35;100444.59;;;22.54;100.00
79645;BME280;69117;47.148;18.954;2023-07-13T07:53:37;100457.06;;;22.23;100.00
79645;BME280;69117;47.148;18.954;2023-07-13T07:56:38;100468.69;;;22.49;100.00
79645;BME280;69117;47.148;18.954;2023-07-13T07:59:43;100486.44;;;22.81;100.00
79645;BME280;69117;47.148;18.954;2023-07-13T08:02:47;100486.16;;;22.64;100.00
79645;BME280;69117;47.148;18.954;2023-07-13T08:05:53;100476.16;;;22.47;100.00
79645;BME280;69117;47.148;18.954;2023-07-13T08:08:58;100473.84;;;22.25;100.00
79645;BME280;69117;47.148;18.954;2023-07-13T08:11:59;100467.69;;;22.43;100.00
79645;BME280;69117;47.148;18.954;2023-07-13T08:15:05;100478.41;;;23.18;100.00
79645;BME280;69117;47.148;18.954;2023-07-13T08:18:07;100476.31;;;23.87;100.00
79645;BME280;69117;47.148;18.954;2023-07-13T08:21:11;100468.41;;;24.04;100.00
79645;BME280;69117;47.148;18.954;2023-07-13T08:24:14;100467.69;;;23.97;100.00
79645;BME280;69117;47.148;18.954;2023-07-13T08:27:16;100469.72;;;24.13;100.00
79645;BME280;69117;47.148;18.954;2023-07-13T08:30:17;100468.00;;;24.31;100.00
79645;BME280;69117;47.148;18.954;2023-07-13T08:33:20;100454.97;;;24.28;100.00
79645;BME280;69117;47.148;18.954;2023-07-13T08:36:22;100476.03;;;24.49;100.00
79645;BME280;69117;47.148;18.954;2023-07-13T08:39:23;100466.41;;;24.77;100.00
79645;BME280;69117;47.148;18.954;2023-07-13T08:42:50;100479.69;;;24.90;100.00
79645;BME280;69117;47.148;18.954;2023-07-13T08:46:05;100470.38;;;25.09;100.00
79645;BME280;69117;47.148;18.954;2023-07-13T08:49:15;100468.38;;;25.28;100.00
79645;BME280;69117;47.148;18.954;2023-07-13T08:52:29;100456.41;;;25.53;100.00
79645;BME280;69117;47.148;18.954;2023-07-13T08:55:35;100460.09;;;25.87;100.00
79645;BME280;69117;47.148;18.954;2023-07-13T08:58:41;100447.81;;;25.27;100.00
79645;BME280;69117;47.148;18.954;2023-07-13T09:05:38;100456.56;;;25.75;100.00
79645;BME280;69117;47.148;18.954;2023-07-13T09:09:01;100458.41;;;26.15;100.00
79645;BME280;69117;47.148;18.954;2023-07-13T09:15:32;100452.06;;;26.26;98.71
79645;BME280;69117;47.148;18.954;2023-07-13T09:19:08;100449.06;;;26.56;96.57
79645;BME280;69117;47.148;18.954;2023-07-13T09:22:05;100436.63;;;26.77;93.12
79645;BME280;69117;47.148;18.954;2023-07-13T09:25:30;100447.78;;;26.81;92.52
79645;BME280;69117;47.148;18.954;2023-07-13T09:28:41;100461.53;;;27.13;95.71
79645;BME280;69117;47.148;18.954;2023-07-13T09:31:47;100451.28;;;27.37;93.64
79645;BME280;69117;47.148;18.954;2023-07-13T09:34:52;100445.13;;;27.69;91.75
79645;BME280;69117;47.148;18.954;2023-07-13T09:38:04;100443.41;;;26.97;87.19
79645;BME280;69117;47.148;18.954;2023-07-13T09:42:18;100450.00;;;27.23;93.52
79645;BME280;69117;47.148;18.954;2023-07-13T09:44:55;100452.91;;;27.16;90.66
79645;BME280;69117;47.148;18.954;2023-07-13T09:48:12;100452.88;;;27.82;90.36
79645;BME280;69117;47.148;18.954;2023-07-13T09:51:15;100449.28;;;28.03;90.36
79645;BME280;69117;47.148;18.954;2023-07-13T09:54:21;100446.63;;;27.81;86.69
79645;BME280;69117;47.148;18.954;2023-07-13T09:57:27;100457.38;;;27.98;85.22
79645;BME280;69117;47.148;18.954;2023-07-13T10:01:00;100448.31;;;28.20;85.12
79645;BME280;69117;47.148;18.954;2023-07-13T10:04:11;100444.56;;;28.58;85.34
79645;BME280;69117;47.148;18.954;2023-07-13T10:07:14;100448.34;;;27.88;83.05
79645;BME280;69117;47.148;18.954;2023-07-13T10:10:29;100438.06;;;28.27;86.44
79645;BME280;69117;47.148;18.954;2023-07-13T10:13:37;100448.47;;;28.03;82.86
79645;BME280;69117;47.148;18.954;2023-07-13T10:16:39;100457.19;;;28.05;80.69
79645;BME280;69117;47.148;18.954;2023-07-13T10:19:44;100466.03;;;27.95;84.61
79645;BME280;69117;47.148;18.954;2023-07-13T10:22:54;100456.28;;;28.26;81.80
79645;BME280;69117;47.148;18.954;2023-07-13T10:25:56;100456.66;;;28.72;84.78
79645;BME280;69117;47.148;18.954;2023-07-13T10:29:04;100447.63;;;28.67;78.23
79645;BME280;69117;47.148;18.954;2023-07-13T10:32:11;100452.84;;;28.73;74.03
79645;BME280;69117;47.148;18.954;2023-07-13T10:35:15;100459.63;;;29.18;73.85
79645;BME280;69117;47.148;18.954;2023-07-13T10:38:22;100452.78;;;29.06;76.36
79645;BME280;69117;47.148;18.954;2023-07-13T10:41:26;100464.22;;;29.76;68.04
79645;BME280;69117;47.148;18.954;2023-07-13T10:44:31;100445.69;;;29.88;63.13
79645;BME280;69117;47.148;18.954;2023-07-13T10:47:33;100442.19;;;30.18;60.93
79645;BME280;69117;47.148;18.954;2023-07-13T10:50:36;100452.97;;;29.57;58.08
79645;BME280;69117;47.148;18.954;2023-07-13T10:53:39;100454.16;;;29.97;58.56
79645;BME280;69117;47.148;18.954;2023-07-13T10:56:41;100445.44;;;29.84;57.22
79645;BME280;69117;47.148;18.954;2023-07-13T10:59:46;100449.00;;;30.26;57.93
79645;BME280;69117;47.148;18.954;2023-07-13T11:03:00;100434.53;;;30.61;55.50
79645;BME280;69117;47.148;18.954;2023-07-13T11:15:44;100433.03;;;31.15;49.26
79645;BME280;69117;47.148;18.954;2023-07-13T11:18:49;100435.88;;;30.84;50.71
79645;BME280;69117;47.148;18.954;2023-07-13T11:28:24;100414.44;;;32.11;50.88
79645;BME280;69117;47.148;18.954;2023-07-13T11:31:32;100416.75;;;32.57;50.05
79645;BME280;69117;47.148;18.954;2023-07-13T11:34:36;100413.38;;;32.89;45.19
79645;BME280;69117;47.148;18.954;2023-07-13T11:37:39;100424.56;;;32.69;46.19
79645;BME280;69117;47.148;18.954;2023-07-13T11:40:44;100425.91;;;32.42;46.19
79645;BME280;69117;47.148;18.954;2023-07-13T11:44:01;100419.56;;;32.76;47.91
79645;BME280;69117;47.148;18.954;2023-07-13T11:47:14;100417.16;;;32.40;46.60
79645;BME280;69117;47.148;18.954;2023-07-13T11:50:20;100423.00;;;31.99;47.66
79645;BME280;69117;47.148;18.954;2023-07-13T11:53:26;100424.00;;;32.72;46.04
79645;BME280;69117;47.148;18.954;2023-07-13T11:56:28;100434.69;;;32.44;45.35
79645;BME280;69117;47.148;18.954;2023-07-13T11:59:30;100431.06;;;31.80;43.61
79645;BME280;69117;47.148;18.954;2023-07-13T12:02:37;100435.88;;;31.54;42.37
79645;BME280;69117;47.148;18.954;2023-07-13T12:05:59;100423.69;;;31.81;40.14
79645;BME280;69117;47.148;18.954;2023-07-13T12:09:09;100431.44;;;32.66;41.91
79645;BME280;69117;47.148;18.954;2023-07-13T12:12:18;100416.19;;;33.08;42.32
79645;BME280;69117;47.148;18.954;2023-07-13T12:15:21;100405.31;;;32.50;42.04
79645;BME280;69117;47.148;18.954;2023-07-13T12:18:29;100406.41;;;32.54;40.79
79645;BME280;69117;47.148;18.954;2023-07-13T12:21:33;100406.44;;;32.20;41.43
79645;BME280;69117;47.148;18.954;2023-07-13T12:24:36;100407.19;;;31.96;43.42
79645;BME280;69117;47.148;18.954;2023-07-13T12:27:38;100405.66;;;31.30;44.63
79645;BME280;69117;47.148;18.954;2023-07-13T12:30:39;100407.66;;;32.03;43.90
79645;BME280;69117;47.148;18.954;2023-07-13T12:33:41;100400.13;;;32.77;44.17
79645;BME280;69117;47.148;18.954;2023-07-13T12:36:58;100404.44;;;32.83;44.44
79645;BME280;69117;47.148;18.954;2023-07-13T12:40:01;100415.81;;;32.08;44.80
79645;BME280;69117;47.148;18.954;2023-07-13T12:43:11;100420.22;;;32.38;48.07
79645;BME280;69117;47.148;18.954;2023-07-13T12:46:23;100412.06;;;33.54;42.55
79645;BME280;69117;47.148;18.954;2023-07-13T12:49:30;100415.34;;;34.07;42.34
79645;BME280;69117;47.148;18.954;2023-07-13T12:52:34;100408.06;;;34.30;41.87
79645;BME280;69117;47.148;18.954;2023-07-13T12:55:42;100406.13;;;33.22;42.76
79645;BME280;69117;47.148;18.954;2023-07-13T12:58:45;100419.84;;;32.16;44.52
79645;BME280;69117;47.148;18.954;2023-07-13T13:01:50;100399.69;;;31.67;45.39
79645;BME280;69117;47.148;18.954;2023-07-13T13:04:52;100373.16;;;32.66;41.55
79645;BME280;69117;47.148;18.954;2023-07-13T13:07:57;100368.97;;;33.16;42.72
79645;BME280;69117;47.148;18.954;2023-07-13T13:10:59;100384.75;;;33.43;42.77
79645;BME280;69117;47.148;18.954;2023-07-13T13:14:01;100375.63;;;33.10;42.75
79645;BME280;69117;47.148;18.954;2023-07-13T13:17:02;100365.84;;;33.80;39.20
79645;BME280;69117;47.148;18.954;2023-07-13T13:20:18;100359.00;;;33.96;40.29
79645;BME280;69117;47.148;18.954;2023-07-13T13:23:20;100359.50;;;32.84;41.94
79645;BME280;69117;47.148;18.954;2023-07-13T13:26:24;100363.84;;;32.37;42.75
79645;BME280;69117;47.148;18.954;2023-07-13T13:29:25;100379.44;;;31.34;45.11
79645;BME280;69117;47.148;18.954;2023-07-13T13:32:27;100373.63;;;30.91;46.33
79645;BME280;69117;47.148;18.954;2023-07-13T13:35:29;100364.47;;;30.46;47.54
79645;BME280;69117;47.148;18.954;2023-07-13T13:38:32;100376.44;;;30.55;47.36
79645;BME280;69117;47.148;18.954;2023-07-13T13:41:34;100365.31;;;30.06;49.25
79645;BME280;69117;47.148;18.954;2023-07-13T13:44:36;100368.59;;;29.87;47.73
79645;BME280;69117;47.148;18.954;2023-07-13T13:47:38;100366.69;;;30.03;52.01
79645;BME280;69117;47.148;18.954;2023-07-13T13:50:41;100377.03;;;30.11;51.61
79645;BME280;69117;47.148;18.954;2023-07-13T13:53:43;100368.88;;;29.91;50.56
79645;BME280;69117;47.148;18.954;2023-07-13T13:56:47;100364.78;;;29.88;51.45
79645;BME280;69117;47.148;18.954;2023-07-13T13:59:49;100362.31;;;29.97;53.69
79645;BME280;69117;47.148;18.954;2023-07-13T14:02:50;100356.03;;;29.86;56.13
79645;BME280;69117;47.148;18.954;2023-07-13T14:05:54;100350.34;;;29.73;53.85
79645;BME280;69117;47.148;18.954;2023-07-13T14:08:57;100364.50;;;29.64;51.51
79645;BME280;69117;47.148;18.954;2023-07-13T14:11:58;100361.19;;;29.57;53.18
79645;BME280;69117;47.148;18.954;2023-07-13T14:15:00;100367.56;;;29.00;51.31
79645;BME280;69117;47.148;18.954;2023-07-13T14:18:03;100365.69;;;28.53;55.60
79645;BME280;69117;47.148;18.954;2023-07-13T14:21:13;100370.16;;;28.32;54.22
79645;BME280;69117;47.148;18.954;2023-07-13T14:24:15;100381.00;;;28.27;53.23
79645;BME280;69117;47.148;18.954;2023-07-13T14:27:17;100385.34;;;28.28;58.42
79645;BME280;69117;47.148;18.954;2023-07-13T14:30:21;100394.81;;;28.20;57.44
79645;BME280;69117;47.148;18.954;2023-07-13T14:33:23;100411.50;;;28.02;61.71
79645;BME280;69117;47.148;18.954;2023-07-13T14:36:34;100413.53;;;27.84;61.79
79645;BME280;69117;47.148;18.954;2023-07-13T14:39:37;100413.75;;;27.78;58.95
79645;BME280;69117;47.148;18.954;2023-07-13T14:42:39;100405.66;;;27.61;62.19
79645;BME280;69117;47.148;18.954;2023-07-13T14:45:43;100408.16;;;27.40;60.26
79645;BME280;69117;47.148;18.954;2023-07-13T14:48:46;100432.78;;;27.34;63.99
79645;BME280;69117;47.148;18.954;2023-07-13T14:51:47;100439.47;;;27.26;65.48
79645;BME280;69117;47.148;18.954;2023-07-13T14:54:50;100421.59;;;27.08;68.84
79645;BME280;69117;47.148;18.954;2023-07-13T14:57:52;100426.66;;;27.00;67.45
79645;BME280;69117;47.148;18.954;2023-07-13T15:00:53;100428.38;;;26.89;68.14
79645;BME280;69117;47.148;18.954;2023-07-13T15:03:57;100420.44;;;26.82;70.21
79645;BME280;69117;47.148;18.954;2023-07-13T15:07:01;100420.97;;;26.62;75.45
79645;BME280;69117;47.148;18.954;2023-07-13T15:13:20;100433.13;;;26.43;72.67
79645;BME280;69117;47.148;18.954;2023-07-13T15:16:24;100432.31;;;26.42;71.80
79645;BME280;69117;47.148;18.954;2023-07-13T15:19:27;100441.25;;;26.43;76.92
79645;BME280;69117;47.148;18.954;2023-07-13T15:22:29;100437.81;;;26.31;77.98
79645;BME280;69117;47.148;18.954;2023-07-13T15:25:32;100415.69;;;25.88;79.27
79645;BME280;69117;47.148;18.954;2023-07-13T15:28:34;100413.50;;;25.85;80.01
79645;BME280;69117;47.148;18.954;2023-07-13T15:31:36;100415.88;;;25.70;84.17
79645;BME280;69117;47.148;18.954;2023-07-13T15:34:40;100414.22;;;25.69;85.23
79645;BME280;69117;47.148;18.954;2023-07-13T15:37:43;100415.44;;;25.61;90.51
79645;BME280;69117;47.148;18.954;2023-07-13T15:40:45;100414.47;;;25.39;92.78
79645;BME280;69117;47.148;18.954;2023-07-13T15:43:47;100418.75;;;25.23;92.82
79645;BME280;69117;47.148;18.954;2023-07-13T15:46:49;100434.09;;;24.94;97.62
79645;BME280;69117;47.148;18.954;2023-07-13T15:49:51;100463.00;;;24.58;100.00
79645;BME280;69117;47.148;18.954;2023-07-13T15:52:54;100469.03;;;24.18;100.00
79645;BME280;69117;47.148;18.954;2023-07-13T15:55:57;100469.88;;;23.88;100.00
79645;BME280;69117;47.148;18.954;2023-07-13T15:58:59;100490.72;;;23.81;100.00
79645;BME280;69117;47.148;18.954;2023-07-13T16:02:04;100511.22;;;23.70;100.00
79645;BME280;69117;47.148;18.954;2023-07-13T16:18:12;100499.28;;;22.79;100.00
79645;BME280;69117;47.148;18.954;2023-07-13T16:21:14;100497.31;;;22.68;100.00
79645;BME280;69117;47.148;18.954;2023-07-13T16:24:19;100487.22;;;22.63;100.00
79645;BME280;69117;47.148;18.954;2023-07-13T16:27:22;100471.97;;;22.51;100.00
79645;BME280;69117;47.148;18.954;2023-07-13T16:30:27;100453.84;;;22.39;100.00
79645;BME280;69117;47.148;18.954;2023-07-13T16:33:30;100411.31;;;22.48;100.00
79645;BME280;69117;47.148;18.954;2023-07-13T16:36:32;100385.06;;;22.62;100.00
79645;BME280;69117;47.148;18.954;2023-07-13T16:39:34;100343.13;;;22.73;100.00
79645;BME280;69117;47.148;18.954;2023-07-13T16:42:36;100343.69;;;22.56;100.00
79645;BME280;69117;47.148;18.954;2023-07-13T16:45:37;100366.25;;;22.37;100.00
79645;BME280;69117;47.148;18.954;2023-07-13T16:48:44;100356.56;;;22.04;100.00
79645;BME280;69117;47.148;18.954;2023-07-13T16:51:45;100361.13;;;22.04;100.00
79645;BME280;69117;47.148;18.954;2023-07-13T16:54:48;100378.03;;;22.11;100.00